Terminal Aerodrome Forecast
Issued by NWS Jackson, MS

Home | Current Version | Previous Version | Text Only | Print | Product List | Glossary On
Versions: 1 2 3 4 5 6 7 8 9 10 11 12
000
FTUS44 KMEG 291137
TAFTUP
TAF
KTUP 291137Z 2912/3012 35009KT P6SM SKC
     FM291600 01015G23KT P6SM FEW040
     FM292200 02014G21KT P6SM SCT045
     FM300100 02005KT P6SM SKC
      TEMPO 3009/3012 6SM BR OVC010=

USA.gov is the U.S. government's official web portal to all federal, state and local government web resources and services.